createdAt,value
2018-01-28T00:00:16.601Z,7.13
2018-01-28T00:01:16.847Z,7.06
2018-01-28T00:02:16.833Z,7.16
2018-01-28T00:03:16.820Z,7.15
2018-01-28T00:04:16.816Z,7.12
2018-01-28T00:05:16.545Z,7.1
2018-01-28T00:06:16.788Z,7.21
2018-01-28T00:07:16.772Z,7.23
2018-01-28T00:08:16.767Z,7.21
2018-01-28T00:09:16.764Z,7.21
2018-01-28T00:10:16.751Z,7.2
2018-01-28T00:11:16.724Z,7.31
2018-01-28T00:12:16.717Z,7.27
2018-01-28T00:13:16.706Z,7.28
2018-01-28T00:14:16.449Z,7.28
2018-01-28T00:15:16.688Z,7.23
2018-01-28T00:16:16.672Z,7.3
2018-01-28T00:17:16.400Z,7.28
2018-01-28T00:18:16.641Z,7.27
2018-01-28T00:19:16.633Z,7.24
2018-01-28T00:20:16.619Z,7.31
2018-01-28T00:21:16.611Z,7.27
2018-01-28T00:22:16.594Z,7.31
2018-01-28T00:23:16.328Z,7.27
2018-01-28T00:24:16.570Z,7.35
2018-01-28T00:25:16.557Z,7.32
2018-01-28T00:26:16.544Z,7.35
2018-01-28T00:27:16.539Z,7.27
2018-01-28T00:28:16.269Z,7.27
2018-01-28T00:29:16.507Z,7.27
2018-01-28T00:30:16.512Z,7.35
2018-01-28T00:31:16.490Z,7.4
2018-01-28T00:32:16.229Z,7.28
2018-01-28T00:33:16.463Z,7.45
2018-01-28T00:34:16.194Z,7.39
2018-01-28T00:35:16.187Z,7.37
2018-01-28T00:36:16.170Z,7.35
2018-01-28T00:37:16.417Z,7.4
2018-01-28T00:38:16.399Z,7.43
2018-01-28T00:39:16.393Z,7.37
2018-01-28T00:40:16.376Z,7.49
2018-01-28T00:41:16.373Z,7.5
2018-01-28T00:42:16.358Z,7.42
2018-01-28T00:43:16.344Z,7.57
2018-01-28T00:44:16.338Z,7.4
2018-01-28T00:45:16.068Z,7.48
2018-01-28T00:46:16.054Z,7.53
2018-01-28T00:47:16.296Z,7.5
2018-01-28T00:48:16.288Z,7.45
2018-01-28T00:49:16.281Z,7.52
2018-01-28T00:50:16.265Z,7.57
2018-01-28T00:51:15.995Z,7.55
2018-01-28T00:52:15.986Z,7.55
2018-01-28T00:53:16.235Z,7.49
2018-01-28T00:54:15.966Z,7.5
2018-01-28T00:55:16.201Z,7.52
2018-01-28T00:56:16.195Z,7.58
2018-01-28T00:57:16.180Z,7.53
2018-01-28T00:58:16.169Z,7.52
2018-01-28T00:59:16.157Z,7.48
2018-01-28T01:00:16.141Z,7.67
2018-01-28T01:01:15.883Z,7.53
2018-01-28T01:02:16.119Z,7.53
2018-01-28T01:03:16.110Z,7.48
2018-01-28T01:04:16.099Z,7.57
2018-01-28T01:05:15.835Z,7.6
2018-01-28T01:06:15.817Z,7.53
2018-01-28T01:07:15.806Z,7.57
2018-01-28T01:08:16.054Z,7.5
2018-01-28T01:09:16.047Z,7.64
2018-01-28T01:10:16.032Z,7.57
2018-01-28T01:11:16.011Z,7.58
2018-01-28T01:12:16.006Z,7.57
2018-01-28T01:13:15.990Z,7.53
2018-01-28T01:14:15.984Z,7.58
2018-01-28T01:15:15.713Z,7.55
2018-01-28T01:16:15.462Z,7.57
2018-01-28T01:17:15.945Z,7.57
2018-01-28T01:18:15.689Z,7.55
2018-01-28T01:19:15.924Z,7.68
2018-01-28T01:20:15.658Z,7.63
2018-01-28T01:21:15.895Z,7.53
2018-01-28T01:22:15.633Z,7.57
2018-01-28T01:23:15.622Z,7.6
2018-01-28T01:24:15.865Z,7.55
2018-01-28T01:25:15.849Z,7.67
2018-01-28T01:26:15.845Z,7.58
2018-01-28T01:27:15.826Z,7.57
2018-01-28T01:28:15.816Z,7.57
2018-01-28T01:29:15.811Z,7.55
2018-01-28T01:30:15.543Z,7.58
2018-01-28T01:31:15.581Z,7.6
2018-01-28T01:32:15.516Z,7.58
2018-01-28T01:33:15.759Z,7.53
2018-01-28T01:34:15.749Z,7.67
2018-01-28T01:35:15.483Z,7.58
2018-01-28T01:36:15.725Z,7.55
2018-01-28T01:37:15.463Z,7.57
2018-01-28T01:38:15.447Z,7.61
2018-01-28T01:39:15.436Z,7.67
2018-01-28T01:40:15.686Z,7.58
2018-01-28T01:41:15.669Z,7.68
2018-01-28T01:42:15.652Z,7.55
2018-01-28T01:43:15.693Z,7.6
2018-01-28T01:44:15.629Z,7.57
2018-01-28T01:45:15.626Z,7.63
2018-01-28T01:46:15.608Z,7.6
2018-01-28T01:47:15.456Z,7.68
2018-01-28T01:48:15.586Z,7.57
2018-01-28T01:49:15.574Z,7.55
2018-01-28T01:50:15.310Z,7.58
2018-01-28T01:51:15.567Z,7.64
2018-01-28T01:52:15.542Z,7.69
2018-01-28T01:53:15.528Z,7.68
2018-01-28T01:54:15.265Z,7.72
2018-01-28T01:55:15.503Z,7.68
2018-01-28T01:56:15.490Z,7.67
2018-01-28T01:57:15.481Z,7.68
2018-01-28T01:58:15.473Z,7.71
2018-01-28T01:59:15.211Z,7.72
2018-01-28T02:00:15.446Z,7.68
2018-01-28T02:01:15.429Z,7.69
2018-01-28T02:02:15.424Z,7.77
2018-01-28T02:03:15.157Z,7.67
2018-01-28T02:04:15.397Z,7.74
2018-01-28T02:05:15.136Z,7.77
2018-01-28T02:06:15.120Z,7.82
2018-01-28T02:07:15.369Z,7.77
2018-01-28T02:08:15.355Z,7.77
2018-01-28T02:09:15.342Z,7.8
2018-01-28T02:10:15.331Z,7.86
2018-01-28T02:11:15.069Z,7.86
2018-01-28T02:12:15.054Z,7.83
2018-01-28T02:13:15.298Z,7.8
2018-01-28T02:14:15.281Z,7.86
2018-01-28T02:15:15.271Z,7.87
2018-01-28T02:16:15.266Z,7.83
2018-01-28T02:17:14.742Z,7.87
2018-01-28T02:18:15.331Z,7.87
2018-01-28T02:19:15.231Z,7.89
2018-01-28T02:20:14.960Z,7.92
2018-01-28T02:21:15.203Z,7.9
2018-01-28T02:22:15.188Z,7.92
2018-01-28T02:23:14.933Z,7.92
2018-01-28T02:24:14.913Z,8.01
2018-01-28T02:25:15.161Z,8.01
2018-01-28T02:26:15.146Z,8.04
2018-01-28T02:27:15.137Z,8.05
2018-01-28T02:28:15.131Z,8.01
2018-01-28T02:29:14.858Z,8.08
2018-01-28T02:30:15.113Z,8.04
2018-01-28T02:31:14.842Z,8.04
2018-01-28T02:32:15.096Z,8.01
2018-01-28T02:33:15.070Z,8.01
2018-01-28T02:34:15.119Z,8.04
2018-01-28T02:35:15.047Z,8.02
2018-01-28T02:36:15.048Z,8.01
2018-01-28T02:37:15.022Z,7.97
2018-01-28T02:38:15.012Z,8.02
2018-01-28T02:39:14.996Z,8.15
2018-01-28T02:40:14.738Z,8.08
2018-01-28T02:41:14.977Z,8.15
2018-01-28T02:42:14.713Z,8.04
2018-01-28T02:43:14.702Z,8.02
2018-01-28T02:44:14.946Z,8.2
2018-01-28T02:45:14.936Z,8.1
2018-01-28T02:46:14.917Z,8.16
2018-01-28T02:47:14.909Z,8
2018-01-28T02:48:14.898Z,8.18
2018-01-28T02:49:14.884Z,8.01
2018-01-28T02:50:14.876Z,8.15
2018-01-28T02:51:14.607Z,8.05
2018-01-28T02:52:14.849Z,8.16
2018-01-28T02:53:14.842Z,8.15
2018-01-28T02:54:14.828Z,8.15
2018-01-28T02:55:14.819Z,8.18
2018-01-28T02:56:14.811Z,8.19
2018-01-28T02:57:14.793Z,8.12
2018-01-28T02:58:14.528Z,8.19
2018-01-28T02:59:14.779Z,8.19
2018-01-28T03:00:14.757Z,8.1
2018-01-28T03:01:14.493Z,8.19
2018-01-28T03:02:14.486Z,8.12
2018-01-28T03:03:14.727Z,8.12
2018-01-28T03:04:14.725Z,8.16
2018-01-28T03:05:14.704Z,8.05
2018-01-28T03:06:14.690Z,8.16
2018-01-28T03:07:14.686Z,8.15
2018-01-28T03:08:14.413Z,8.11
2018-01-28T03:09:14.405Z,8.18
2018-01-28T03:10:14.396Z,8.16
2018-01-28T03:11:14.638Z,8.02
2018-01-28T03:12:14.628Z,8.18
2018-01-28T03:13:14.359Z,7.98
2018-01-28T03:14:14.600Z,8
2018-01-28T03:15:14.586Z,8.01
2018-01-28T03:16:14.324Z,8.01
2018-01-28T03:17:14.569Z,8.01
2018-01-28T03:18:14.604Z,8.05
2018-01-28T03:19:14.291Z,8.05
2018-01-28T03:20:14.534Z,8.07
2018-01-28T03:21:14.518Z,8.05
2018-01-28T03:22:14.512Z,8.01
2018-01-28T03:23:14.509Z,8
2018-01-28T03:24:14.488Z,8.04
2018-01-28T03:25:14.496Z,8.01
2018-01-28T03:26:14.469Z,8.02
2018-01-28T03:27:14.452Z,8.05
2018-01-28T03:28:14.446Z,8
2018-01-28T03:29:14.439Z,8.08
2018-01-28T03:30:14.435Z,8.05
2018-01-28T03:31:14.415Z,8.02
2018-01-28T03:32:14.141Z,8.11
2018-01-28T03:33:14.388Z,8.18
2018-01-28T03:34:14.384Z,8.11
2018-01-28T03:35:14.360Z,8.15
2018-01-28T03:36:14.098Z,8.15
2018-01-28T03:37:14.095Z,8.12
2018-01-28T03:38:14.329Z,8.15
2018-01-28T03:39:14.315Z,8.1
2018-01-28T03:40:14.051Z,8.05
2018-01-28T03:41:14.294Z,8.07
2018-01-28T03:42:14.029Z,8.11
2018-01-28T03:43:14.270Z,8.16
2018-01-28T03:44:14.314Z,8.18
2018-01-28T03:45:14.251Z,8.2
2018-01-28T03:46:14.237Z,8.19
2018-01-28T03:47:14.227Z,8.18
2018-01-28T03:48:14.283Z,8.11
2018-01-28T03:49:13.952Z,8.1
2018-01-28T03:50:14.189Z,8.25
2018-01-28T03:51:14.181Z,8.15
2018-01-28T03:52:14.170Z,8.08
2018-01-28T03:53:14.160Z,8.1
2018-01-28T03:54:14.147Z,8.1
2018-01-28T03:55:14.140Z,8.2
2018-01-28T03:56:14.129Z,8.12
2018-01-28T03:57:14.116Z,8.1
2018-01-28T03:58:14.132Z,8.04
2018-01-28T03:59:14.094Z,8.01
2018-01-28T04:00:13.826Z,8.16
2018-01-28T04:01:14.065Z,8.15
2018-01-28T04:02:14.061Z,8.12
2018-01-28T04:03:14.047Z,8.12
2018-01-28T04:04:14.036Z,8.12
2018-01-28T04:05:13.516Z,8.08
2018-01-28T04:06:14.011Z,8.12
2018-01-28T04:07:13.996Z,8.15
2018-01-28T04:08:13.985Z,8.16
2018-01-28T04:09:13.982Z,8.16
2018-01-28T04:10:13.964Z,8.16
2018-01-28T04:11:13.954Z,8.12
2018-01-28T04:12:13.944Z,8.2
2018-01-28T04:13:13.680Z,8.16
2018-01-28T04:14:13.670Z,8.25
2018-01-28T04:15:13.908Z,8.22
2018-01-28T04:16:13.644Z,8.34
2018-01-28T04:17:13.635Z,8.29
2018-01-28T04:18:13.874Z,8.22
2018-01-28T04:19:13.859Z,8.3
2018-01-28T04:20:13.857Z,8.22
2018-01-28T04:21:13.846Z,8.28
2018-01-28T04:22:13.830Z,8.19
2018-01-28T04:23:13.818Z,8.19
2018-01-28T04:24:13.810Z,8.1
2018-01-28T04:25:13.796Z,8.1
2018-01-28T04:26:13.783Z,8.23
2018-01-28T04:27:13.774Z,8.26
2018-01-28T04:28:13.509Z,8.25
2018-01-28T04:29:13.756Z,8.26
2018-01-28T04:30:13.743Z,8.19
2018-01-28T04:31:13.731Z,8.18
2018-01-28T04:32:13.721Z,8.26
2018-01-28T04:33:13.455Z,8.26
2018-01-28T04:34:13.694Z,8.23
2018-01-28T04:35:13.681Z,8.15
2018-01-28T04:36:13.671Z,8.28
2018-01-28T04:37:13.662Z,8.25
2018-01-28T04:38:13.394Z,8.28
2018-01-28T04:39:13.640Z,8.3
2018-01-28T04:40:13.626Z,8.25
2018-01-28T04:41:13.617Z,8.29
2018-01-28T04:42:13.604Z,8.25
2018-01-28T04:43:13.345Z,8.22
2018-01-28T04:44:13.582Z,8.28
2018-01-28T04:45:13.567Z,8.2
2018-01-28T04:46:13.559Z,8.29
2018-01-28T04:47:13.550Z,8.18
2018-01-28T04:48:13.538Z,8.29
2018-01-28T04:49:13.527Z,8.29
2018-01-28T04:50:13.264Z,8.23
2018-01-28T04:51:13.512Z,8.19
2018-01-28T04:52:13.487Z,8.25
2018-01-28T04:53:13.228Z,8.25
2018-01-28T04:54:13.474Z,8.18
2018-01-28T04:55:13.457Z,8.26
2018-01-28T04:56:13.446Z,8.16
2018-01-28T04:57:13.438Z,8.25
2018-01-28T04:58:13.426Z,8.25
2018-01-28T04:59:13.423Z,8.18
2018-01-28T05:00:13.406Z,8.16
2018-01-28T05:01:13.391Z,8.15
2018-01-28T05:02:13.126Z,8.11
2018-01-28T05:03:13.427Z,8.18
2018-01-28T05:04:13.357Z,8.16
2018-01-28T05:05:13.094Z,8.05
2018-01-28T05:06:13.093Z,8.18
2018-01-28T05:07:13.326Z,8.05
2018-01-28T05:08:13.057Z,8.12
2018-01-28T05:09:13.307Z,8
2018-01-28T05:10:13.302Z,7.98
2018-01-28T05:11:13.283Z,8.07
2018-01-28T05:12:13.266Z,8.05
2018-01-28T05:13:13.001Z,8.05
2018-01-28T05:14:13.011Z,8.07
2018-01-28T05:15:13.242Z,8.02
2018-01-28T05:16:13.225Z,8.04
2018-01-28T05:17:13.211Z,8.04
2018-01-28T05:18:12.952Z,8.01
2018-01-28T05:19:12.951Z,8.04
2018-01-28T05:20:12.925Z,8.07
2018-01-28T05:21:12.668Z,8.05
2018-01-28T05:22:12.648Z,8.07
2018-01-28T05:23:12.900Z,8.07
2018-01-28T05:24:13.133Z,7.98
2018-01-28T05:25:13.121Z,8
2018-01-28T05:26:13.108Z,8.01
2018-01-28T05:27:13.095Z,7.92
2018-01-28T05:28:12.576Z,8
2018-01-28T05:29:13.075Z,8
2018-01-28T05:30:13.062Z,8.12
2018-01-28T05:31:13.050Z,8.12
2018-01-28T05:32:13.049Z,8.16
2018-01-28T05:33:13.028Z,8.12
2018-01-28T05:34:13.013Z,8.15
2018-01-28T05:35:12.752Z,8.15
2018-01-28T05:36:12.996Z,8.16
2018-01-28T05:37:12.734Z,8.16
2018-01-28T05:38:12.973Z,8.2
2018-01-28T05:39:12.957Z,8.18
2018-01-28T05:40:12.946Z,8.11
2018-01-28T05:41:12.938Z,8.11
2018-01-28T05:42:12.672Z,8.19
2018-01-28T05:43:12.915Z,8.12
2018-01-28T05:44:12.905Z,8.25
2018-01-28T05:45:12.891Z,8.2
2018-01-28T05:46:12.881Z,8.12
2018-01-28T05:47:12.617Z,8.1
2018-01-28T05:48:12.860Z,8.12
2018-01-28T05:49:12.847Z,8.18
2018-01-28T05:50:12.834Z,8.26
2018-01-28T05:51:12.825Z,8.26
2018-01-28T05:52:12.812Z,8.19
2018-01-28T05:53:12.804Z,8.29
2018-01-28T05:54:12.801Z,8.3
2018-01-28T05:55:12.785Z,8.37
2018-01-28T05:56:12.765Z,8.29
2018-01-28T05:57:12.753Z,8.33
2018-01-28T05:58:12.748Z,8.3
2018-01-28T05:59:12.738Z,8.33
2018-01-28T06:00:12.721Z,8.29
2018-01-28T06:01:12.709Z,8.38
2018-01-28T06:02:12.703Z,8.33
2018-01-28T06:03:12.686Z,8.33
2018-01-28T06:04:12.676Z,8.36
2018-01-28T06:05:12.664Z,8.33
2018-01-28T06:06:12.655Z,8.37
2018-01-28T06:07:12.644Z,8.33
2018-01-28T06:08:12.628Z,8.3
2018-01-28T06:09:12.623Z,8.36
2018-01-28T06:10:12.609Z,8.37
2018-01-28T06:11:12.599Z,8.34
2018-01-28T06:12:12.333Z,8.3
2018-01-28T06:13:12.646Z,8.41
2018-01-28T06:14:12.313Z,8.37
2018-01-28T06:15:12.552Z,8.34
2018-01-28T06:16:12.290Z,8.34
2018-01-28T06:17:12.277Z,8.3
2018-01-28T06:18:12.520Z,8.29
2018-01-28T06:19:12.512Z,8.29
2018-01-28T06:20:12.498Z,8.34
2018-01-28T06:21:12.484Z,8.36
2018-01-28T06:22:12.219Z,8.3
2018-01-28T06:23:12.490Z,8.29
2018-01-28T06:24:12.568Z,8.33
2018-01-28T06:25:12.447Z,8.36
2018-01-28T06:26:12.426Z,8.3
2018-01-28T06:27:12.415Z,8.22
2018-01-28T06:28:12.151Z,8.18
2018-01-28T06:29:12.397Z,8.2
2018-01-28T06:30:12.393Z,8.11
2018-01-28T06:31:12.378Z,8.11
2018-01-28T06:32:12.363Z,8.02
2018-01-28T06:33:12.353Z,8.08
2018-01-28T06:34:12.342Z,8
2018-01-28T06:35:12.331Z,8.04
2018-01-28T06:36:12.065Z,8.01
2018-01-28T06:37:12.312Z,8.08
2018-01-28T06:38:12.059Z,8.1
2018-01-28T06:39:12.283Z,8.05
2018-01-28T06:40:12.275Z,8.01
2018-01-28T06:41:12.261Z,8.05
2018-01-28T06:42:12.001Z,8.02
2018-01-28T06:43:12.245Z,8.01
2018-01-28T06:44:12.227Z,7.98
2018-01-28T06:45:12.222Z,8
2018-01-28T06:46:12.212Z,7.89
2018-01-28T06:47:12.192Z,7.89
2018-01-28T06:48:11.927Z,7.9
2018-01-28T06:49:12.171Z,7.86
2018-01-28T06:50:12.174Z,7.9
2018-01-28T06:51:12.148Z,7.89
2018-01-28T06:52:11.881Z,7.89
2018-01-28T06:53:12.124Z,7.8
2018-01-28T06:54:12.119Z,7.75
2018-01-28T06:55:12.107Z,7.82
2018-01-28T06:56:11.582Z,7.8
2018-01-28T06:57:12.083Z,7.79
2018-01-28T06:58:12.065Z,7.75
2018-01-28T06:59:12.062Z,7.85
2018-01-28T07:00:11.792Z,7.86
2018-01-28T07:01:12.033Z,7.8
2018-01-28T07:02:12.024Z,7.83
2018-01-28T07:03:12.021Z,7.82
2018-01-28T07:04:11.749Z,7.86
2018-01-28T07:05:11.992Z,7.83
2018-01-28T07:06:11.977Z,7.85
2018-01-28T07:07:11.963Z,7.87
2018-01-28T07:08:11.705Z,7.87
2018-01-28T07:09:11.692Z,7.83
2018-01-28T07:10:11.978Z,7.83
2018-01-28T07:11:11.667Z,7.83
2018-01-28T07:12:11.914Z,7.8
2018-01-28T07:13:11.896Z,7.86
2018-01-28T07:14:11.884Z,7.8
2018-01-28T07:15:11.870Z,7.86
2018-01-28T07:16:11.607Z,7.85
2018-01-28T07:17:11.851Z,7.86
2018-01-28T07:18:11.583Z,7.89
2018-01-28T07:19:11.827Z,7.82
2018-01-28T07:20:11.822Z,7.86
2018-01-28T07:21:11.550Z,7.82
2018-01-28T07:22:11.539Z,7.79
2018-01-28T07:23:11.525Z,7.8
2018-01-28T07:24:11.769Z,7.75
2018-01-28T07:25:11.756Z,7.79
2018-01-28T07:26:11.741Z,7.79
2018-01-28T07:27:11.734Z,7.8
2018-01-28T07:28:11.470Z,7.79
2018-01-28T07:29:11.716Z,7.74
2018-01-28T07:30:11.702Z,7.8
2018-01-28T07:31:11.691Z,7.74
2018-01-28T07:32:11.677Z,7.77
2018-01-28T07:33:11.671Z,7.82
2018-01-28T07:34:11.657Z,7.85
2018-01-28T07:35:11.663Z,7.79
2018-01-28T07:36:11.630Z,7.75
2018-01-28T07:37:11.616Z,7.8
2018-01-28T07:38:11.606Z,7.77
2018-01-28T07:39:11.343Z,7.87
2018-01-28T07:40:11.330Z,7.9
2018-01-28T07:41:11.573Z,7.83
2018-01-28T07:42:11.560Z,7.83
2018-01-28T07:43:11.346Z,7.92
2018-01-28T07:44:11.541Z,7.87
2018-01-28T07:45:11.271Z,7.89
2018-01-28T07:46:11.265Z,7.92
2018-01-28T07:47:11.256Z,7.93
2018-01-28T07:48:11.488Z,7.98
2018-01-28T07:49:11.228Z,7.83
2018-01-28T07:50:11.467Z,8
2018-01-28T07:51:11.201Z,7.92
2018-01-28T07:52:11.189Z,7.86
2018-01-28T07:53:11.435Z,7.83
2018-01-28T07:54:11.422Z,7.86
2018-01-28T07:55:11.411Z,7.89
2018-01-28T07:56:11.145Z,7.9
2018-01-28T07:57:11.389Z,7.92
2018-01-28T07:58:11.124Z,7.92
2018-01-28T07:59:11.114Z,7.98
2018-01-28T08:00:11.360Z,8.02
2018-01-28T08:01:11.341Z,8.01
2018-01-28T08:02:11.333Z,8.01
2018-01-28T08:03:11.324Z,8.01
2018-01-28T08:04:11.056Z,8.04
2018-01-28T08:05:10.791Z,8.12
2018-01-28T08:06:11.033Z,8.11
2018-01-28T08:07:11.275Z,8.16
2018-01-28T08:08:11.016Z,8.16
2018-01-28T08:09:11.001Z,8.16
2018-01-28T08:10:11.242Z,8.11
2018-01-28T08:11:11.226Z,8.18
2018-01-28T08:12:11.224Z,8.16
2018-01-28T08:13:10.953Z,8.12
2018-01-28T08:14:11.195Z,8.22
2018-01-28T08:15:10.678Z,8.29
2018-01-28T08:16:10.926Z,8.22
2018-01-28T08:17:11.163Z,8.22
2018-01-28T08:18:10.900Z,8.33
2018-01-28T08:19:11.190Z,8.28
2018-01-28T08:20:10.619Z,8.29
2018-01-28T08:21:10.866Z,8.36
2018-01-28T08:22:10.854Z,8.36
2018-01-28T08:23:10.888Z,8.41
2018-01-28T08:24:11.083Z,8.37
2018-01-28T08:25:11.069Z,8.37
2018-01-28T08:26:10.805Z,8.43
2018-01-28T08:27:11.052Z,8.43
2018-01-28T08:28:10.796Z,8.37
2018-01-28T08:29:10.770Z,8.41
2018-01-28T08:30:10.512Z,8.4
2018-01-28T08:31:10.753Z,8.47
2018-01-28T08:32:10.994Z,8.38
2018-01-28T08:33:10.736Z,8.44
2018-01-28T08:34:10.464Z,8.52
2018-01-28T08:35:10.705Z,8.5
2018-01-28T08:36:10.946Z,8.5
2018-01-28T08:37:10.939Z,8.52
2018-01-28T08:38:10.928Z,8.47
2018-01-28T08:39:10.666Z,8.52
2018-01-28T08:40:10.905Z,8.5
2018-01-28T08:41:10.943Z,8.52
2018-01-28T08:42:10.882Z,8.53
2018-01-28T08:43:10.877Z,8.53
2018-01-28T08:44:10.623Z,8.53
2018-01-28T08:45:10.853Z,8.45
2018-01-28T08:46:10.341Z,8.47
2018-01-28T08:47:10.824Z,8.44
2018-01-28T08:48:10.565Z,8.48
2018-01-28T08:49:10.805Z,8.38
2018-01-28T08:50:10.538Z,8.52
2018-01-28T08:51:10.533Z,8.53
2018-01-28T08:52:10.775Z,8.52
2018-01-28T08:53:10.255Z,8.5
2018-01-28T08:54:10.753Z,8.5
2018-01-28T08:55:10.487Z,8.5
2018-01-28T08:56:10.729Z,8.56
2018-01-28T08:57:10.716Z,8.58
2018-01-28T08:58:10.457Z,8.66
2018-01-28T08:59:10.441Z,8.7
2018-01-28T09:00:10.686Z,8.66
2018-01-28T09:01:10.674Z,8.76
2018-01-28T09:02:10.664Z,8.66
2018-01-28T09:03:10.403Z,8.83
2018-01-28T09:04:10.387Z,8.79
2018-01-28T09:05:10.631Z,8.71
2018-01-28T09:06:10.366Z,8.79
2018-01-28T09:07:10.354Z,8.81
2018-01-28T09:08:10.345Z,8.83
2018-01-28T09:09:10.584Z,8.77
2018-01-28T09:10:10.576Z,8.83
2018-01-28T09:11:10.565Z,8.81
2018-01-28T09:12:10.554Z,8.76
2018-01-28T09:13:10.545Z,8.89
2018-01-28T09:14:10.535Z,8.87
2018-01-28T09:15:10.530Z,8.92
2018-01-28T09:16:10.511Z,9.01
2018-01-28T09:17:10.498Z,9.08
2018-01-28T09:18:09.983Z,9.18
2018-01-28T09:19:10.228Z,9.11
2018-01-28T09:20:10.471Z,9.15
2018-01-28T09:21:10.459Z,9.24
2018-01-28T09:22:10.194Z,9.32
2018-01-28T09:23:10.236Z,9.48
2018-01-28T09:24:10.443Z,9.47
2018-01-28T09:25:10.420Z,9.58
2018-01-28T09:26:10.174Z,9.72
2018-01-28T09:27:10.398Z,9.68
2018-01-28T09:28:10.134Z,9.78
2018-01-28T09:29:10.124Z,9.81
2018-01-28T09:30:10.370Z,9.79
2018-01-28T09:31:10.106Z,9.81
2018-01-28T09:32:10.359Z,9.87
2018-01-28T09:33:10.346Z,9.91
2018-01-28T09:34:10.080Z,9.93
2018-01-28T09:35:10.321Z,9.97
2018-01-28T09:36:10.053Z,10.08
2018-01-28T09:37:10.294Z,10.07
2018-01-28T09:38:10.303Z,10.23
2018-01-28T09:39:10.026Z,10.17
2018-01-28T09:40:10.266Z,10.32
2018-01-28T09:41:10.006Z,10.3
2018-01-28T09:42:10.246Z,10.44
2018-01-28T09:43:09.988Z,10.45
2018-01-28T09:44:09.982Z,10.47
2018-01-28T09:45:10.217Z,10.55
2018-01-28T09:46:09.965Z,10.64
2018-01-28T09:47:09.695Z,10.7
2018-01-28T09:48:10.206Z,10.7
2018-01-28T09:49:09.943Z,10.82
2018-01-28T09:50:10.175Z,10.82
2018-01-28T09:51:09.912Z,10.88
2018-01-28T09:52:10.163Z,10.96
2018-01-28T09:53:10.160Z,10.99
2018-01-28T09:54:09.886Z,11.04
2018-01-28T09:55:10.130Z,11.11
2018-01-28T09:56:10.117Z,11.1
2018-01-28T09:57:10.118Z,11.07
2018-01-28T09:58:10.107Z,11.15
2018-01-28T09:59:09.588Z,11.27
2018-01-28T10:00:10.081Z,11.27
2018-01-28T10:01:10.079Z,11.32
2018-01-28T10:02:10.073Z,11.49
2018-01-28T10:03:10.066Z,11.51
2018-01-28T10:04:09.796Z,11.58
2018-01-28T10:05:09.837Z,11.72
2018-01-28T10:06:09.780Z,11.65
2018-01-28T10:07:09.521Z,11.72
2018-01-28T10:08:10.025Z,11.72
2018-01-28T10:09:10.010Z,11.65
2018-01-28T10:10:09.995Z,11.72
2018-01-28T10:11:09.990Z,11.67
2018-01-28T10:12:09.981Z,11.64
2018-01-28T10:13:09.977Z,11.54
2018-01-28T10:14:09.719Z,11.64
2018-01-28T10:15:09.707Z,11.72
2018-01-28T10:16:09.701Z,11.62
2018-01-28T10:17:09.951Z,11.52
2018-01-28T10:18:09.941Z,11.62
2018-01-28T10:19:09.922Z,11.54
2018-01-28T10:20:09.916Z,11.49
2018-01-28T10:21:09.703Z,11.43
2018-01-28T10:22:09.656Z,11.33
2018-01-28T10:23:09.649Z,11.29
2018-01-28T10:24:09.629Z,11.21
2018-01-28T10:25:09.369Z,11.27
2018-01-28T10:26:09.611Z,11.11
2018-01-28T10:27:09.605Z,11.07
2018-01-28T10:28:09.594Z,11.04
2018-01-28T10:29:09.858Z,10.96
2018-01-28T10:30:09.833Z,10.99
2018-01-28T10:31:09.837Z,10.97
2018-01-28T10:32:09.306Z,10.88
2018-01-28T10:33:09.552Z,10.91
2018-01-28T10:34:09.802Z,10.94
2018-01-28T10:35:09.785Z,10.94
2018-01-28T10:36:09.778Z,10.99
2018-01-28T10:37:09.774Z,10.97
2018-01-28T10:38:09.259Z,11.04
2018-01-28T10:39:09.754Z,11.07
2018-01-28T10:40:09.746Z,11.14
2018-01-28T10:41:09.247Z,11.09
2018-01-28T10:42:09.473Z,11.18
2018-01-28T10:43:09.716Z,11.32
2018-01-28T10:44:09.719Z,11.28
2018-01-28T10:45:09.703Z,11.32
2018-01-28T10:46:09.696Z,11.39
2018-01-28T10:47:09.684Z,11.42
2018-01-28T10:48:09.674Z,11.42
2018-01-28T10:49:09.426Z,11.36
2018-01-28T10:50:09.411Z,11.39
2018-01-28T10:51:09.669Z,11.46
2018-01-28T10:52:09.641Z,11.36
2018-01-28T10:53:09.642Z,11.36
2018-01-28T10:54:09.641Z,11.4
2018-01-28T10:55:09.629Z,11.42
2018-01-28T10:56:09.617Z,11.42
2018-01-28T10:57:09.604Z,11.44
2018-01-28T10:58:10.056Z,11.39
2018-01-28T10:59:09.592Z,11.43
2018-01-28T11:00:09.575Z,11.46
2018-01-28T11:01:09.319Z,11.4
2018-01-28T11:02:09.555Z,11.39
2018-01-28T11:03:09.545Z,11.35
2018-01-28T11:04:09.285Z,11.35
2018-01-28T11:05:09.529Z,11.4
2018-01-28T11:06:09.269Z,11.37
2018-01-28T11:07:09.516Z,11.42
2018-01-28T11:08:09.502Z,11.37
2018-01-28T11:09:09.495Z,11.46
2018-01-28T11:10:09.484Z,11.44
2018-01-28T11:11:09.227Z,11.54
2018-01-28T11:12:09.476Z,11.49
2018-01-28T11:13:09.218Z,11.54
2018-01-28T11:14:09.459Z,11.54
2018-01-28T11:15:09.448Z,11.52
2018-01-28T11:16:09.444Z,11.57
2018-01-28T11:17:09.434Z,11.55
2018-01-28T11:18:09.171Z,11.55
2018-01-28T11:19:09.154Z,11.51
2018-01-28T11:20:09.614Z,11.52
2018-01-28T11:21:09.397Z,11.58
2018-01-28T11:22:09.133Z,11.57
2018-01-28T11:23:09.375Z,11.57
2018-01-28T11:24:09.371Z,11.69
2018-01-28T11:25:09.363Z,11.64
2018-01-28T11:26:09.101Z,11.57
2018-01-28T11:27:09.091Z,11.55
2018-01-28T11:28:08.830Z,11.57
2018-01-28T11:29:09.084Z,11.49
2018-01-28T11:30:09.068Z,11.51
2018-01-28T11:31:09.320Z,11.49
2018-01-28T11:32:09.047Z,11.44
2018-01-28T11:33:09.291Z,11.4
2018-01-28T11:34:09.286Z,11.35
2018-01-28T11:35:09.278Z,11.36
2018-01-28T11:36:09.264Z,11.33
2018-01-28T11:37:09.256Z,11.27
2018-01-28T11:38:09.037Z,11.19
2018-01-28T11:39:08.986Z,11.22
2018-01-28T11:40:09.233Z,11.25
2018-01-28T11:41:09.225Z,11.28
2018-01-28T11:42:09.227Z,11.25
2018-01-28T11:43:09.628Z,11.35
2018-01-28T11:44:09.197Z,11.28
2018-01-28T11:45:09.189Z,11.28
2018-01-28T11:46:08.925Z,11.22
2018-01-28T11:47:09.166Z,11.27
2018-01-28T11:48:08.657Z,11.28
2018-01-28T11:49:08.903Z,11.18
2018-01-28T11:50:08.893Z,11.32
2018-01-28T11:51:08.884Z,11.28
2018-01-28T11:52:09.130Z,11.22
2018-01-28T11:53:09.127Z,11.21
2018-01-28T11:54:09.128Z,11.28
2018-01-28T11:55:09.104Z,11.28
2018-01-28T11:56:09.112Z,11.39
2018-01-28T11:57:09.106Z,11.37
2018-01-28T11:58:08.865Z,11.28
2018-01-28T11:59:08.825Z,11.39
2018-01-28T12:00:08.831Z,11.39
2018-01-28T12:01:09.057Z,11.35
2018-01-28T12:02:09.043Z,11.28
2018-01-28T12:03:09.043Z,11.32
2018-01-28T12:04:09.026Z,11.33
2018-01-28T12:05:09.046Z,11.27
2018-01-28T12:06:08.757Z,11.18
2018-01-28T12:07:09.009Z,11.06
2018-01-28T12:08:08.987Z,11.1
2018-01-28T12:09:08.485Z,11.03
2018-01-28T12:10:08.969Z,10.96
2018-01-28T12:11:08.713Z,10.91
2018-01-28T12:12:08.704Z,10.89
2018-01-28T12:13:08.956Z,10.86
2018-01-28T12:14:08.717Z,10.73
2018-01-28T12:15:08.929Z,10.66
2018-01-28T12:16:08.673Z,10.64
2018-01-28T12:17:08.665Z,10.64
2018-01-28T12:18:08.898Z,10.59
2018-01-28T12:19:08.898Z,10.55
2018-01-28T12:20:08.889Z,10.48
2018-01-28T12:21:08.620Z,10.56
2018-01-28T12:22:08.638Z,10.56
2018-01-28T12:23:08.609Z,10.6
2018-01-28T12:24:08.858Z,10.47
2018-01-28T12:25:08.846Z,10.56
2018-01-28T12:26:08.841Z,10.68
2018-01-28T12:27:08.823Z,10.66
2018-01-28T12:28:08.815Z,10.66
2018-01-28T12:29:08.813Z,10.66
2018-01-28T12:30:08.793Z,10.66
2018-01-28T12:31:08.780Z,10.63
2018-01-28T12:32:08.777Z,10.78
2018-01-28T12:33:08.529Z,10.67
2018-01-28T12:34:08.799Z,10.76
2018-01-28T12:35:08.498Z,10.74
2018-01-28T12:36:08.773Z,10.73
2018-01-28T12:37:08.477Z,10.78
2018-01-28T12:38:08.466Z,10.71
2018-01-28T12:39:08.465Z,10.73
2018-01-28T12:40:08.458Z,10.66
2018-01-28T12:41:08.454Z,10.64
2018-01-28T12:42:08.751Z,10.66
2018-01-28T12:43:08.698Z,10.59
2018-01-28T12:44:08.418Z,10.63
2018-01-28T12:45:08.658Z,10.53
2018-01-28T12:46:08.651Z,10.53
2018-01-28T12:47:08.649Z,10.53
2018-01-28T12:48:08.626Z,10.59
2018-01-28T12:49:08.369Z,10.61
2018-01-28T12:50:08.361Z,10.61
2018-01-28T12:51:08.602Z,10.6
2018-01-28T12:52:08.606Z,10.66
2018-01-28T12:53:08.588Z,10.66
2018-01-28T12:54:08.578Z,10.7
2018-01-28T12:55:08.581Z,10.71
2018-01-28T12:56:08.300Z,10.81
2018-01-28T12:57:08.544Z,10.79
2018-01-28T12:58:08.572Z,10.82
2018-01-28T12:59:08.528Z,10.84
2018-01-28T13:00:08.266Z,10.79
2018-01-28T13:01:08.507Z,10.78
2018-01-28T13:02:08.505Z,10.78
2018-01-28T13:03:08.497Z,10.78
2018-01-28T13:04:08.232Z,10.82
2018-01-28T13:05:08.517Z,10.84
2018-01-28T13:06:08.205Z,10.94
2018-01-28T13:07:08.451Z,10.84
2018-01-28T13:08:08.450Z,10.97
2018-01-28T13:09:08.447Z,11.07
2018-01-28T13:10:08.426Z,11.04
2018-01-28T13:11:08.419Z,11.1
2018-01-28T13:12:07.900Z,11.1
2018-01-28T13:13:08.398Z,11.15
2018-01-28T13:14:08.136Z,11.09